Time;durP1;ratioP1;P1;durP2;ratioP2;P2;SDS_P1;SDS_P2;PMS_P1;PMS_P2;Temp;Humidity;BMP_temperature;BMP_pressure;BME280_temperature;BME280_humidity;BME280_pressure;Samples;Min_cycle;Max_cycle;Signal;HPM_P1;HPM_P2
2022/04/01 00:00:48;;;;;;;37.78;14.45;;;;;;;18.44;61.06;95644.16;4426195;32;20145;-78
2022/04/01 00:03:15;;;;;;;43.83;15.23;;;;;;;18.52;61.22;95632.06;4426038;32;20109;-78
2022/04/01 00:05:42;;;;;;;54.72;14.60;;;;;;;17.84;63.42;95623.09;4425534;32;20109;-78
2022/04/01 00:08:09;;;;;;;45.92;14.63;;;;;;;17.90;63.51;95614.59;4426131;32;20120;-78
2022/04/01 00:10:37;;;;;;;36.63;14.00;;;;;;;17.99;63.61;95616.19;4425995;32;20090;-78
2022/04/01 00:13:05;;;;;;;35.83;14.43;;;;;;;18.77;60.46;95621.28;4425612;32;20122;-78
2022/04/01 00:15:32;;;;;;;46.15;14.75;;;;;;;18.02;62.91;95620.25;4425903;32;20176;-78
2022/04/01 00:18:00;;;;;;;57.75;14.75;;;;;;;17.48;65.41;95615.69;4425905;32;20061;-78
2022/04/01 00:20:27;;;;;;;79.93;16.33;;;;;;;18.02;63.58;95613.25;4425409;32;20130;-78
2022/04/01 00:22:55;;;;;;;45.25;13.98;;;;;;;18.42;62.04;95614.00;4425921;32;20101;-78
2022/04/01 00:25:22;;;;;;;39.67;14.10;;;;;;;18.28;62.42;95606.91;4425468;32;20120;-78
2022/04/01 00:27:50;;;;;;;50.33;14.10;;;;;;;18.13;62.91;95605.03;4425947;32;20591;-78
2022/04/01 00:30:18;;;;;;;30.00;12.90;;;;;;;17.66;64.56;95607.66;4425799;32;20138;-78
2022/04/01 00:32:45;;;;;;;29.20;12.82;;;;;;;17.58;65.17;95611.09;4425533;32;20098;-78
2022/04/01 00:35:12;;;;;;;23.52;11.40;;;;;;;16.70;67.95;95602.44;4425561;32;20120;-78
2022/04/01 00:37:40;;;;;;;20.42;9.60;;;;;;;16.06;70.39;95604.75;4425807;32;20070;-78
2022/04/01 00:40:11;;;;;;;19.60;9.55;;;;;;;15.39;73.45;95601.19;4425528;32;20117;-78
2022/04/01 00:42:40;;;;;;;18.35;8.77;;;;;;;15.75;73.00;95603.69;4425816;32;20106;-78
2022/04/01 00:45:07;;;;;;;19.27;8.32;;;;;;;15.87;72.27;95607.62;4425518;32;20501;-78
2022/04/01 00:47:34;;;;;;;16.42;7.80;;;;;;;16.11;71.07;95592.09;4425601;32;20074;-78
2022/04/01 00:50:01;;;;;;;17.55;7.10;;;;;;;16.24;70.74;95585.59;4425814;32;20534;-78
2022/04/01 00:52:30;;;;;;;13.50;6.00;;;;;;;15.91;71.75;95581.13;4425747;32;20119;-78
2022/04/01 00:54:57;;;;;;;11.12;4.62;;;;;;;16.65;67.85;95586.47;4425204;32;20179;-78
2022/04/01 00:57:25;;;;;;;9.75;3.85;;;;;;;17.32;63.95;95589.66;4425712;32;20078;-78
2022/04/01 00:59:54;;;;;;;10.02;4.00;;;;;;;16.78;65.12;95594.63;4425716;32;20116;-78
2022/04/01 01:02:25;;;;;;;8.10;3.22;;;;;;;16.67;64.55;95605.31;4425514;32;20163;-78
2022/04/01 01:04:52;;;;;;;7.60;3.20;;;;;;;16.42;64.41;95605.31;4425538;32;20654;-77
2022/04/01 01:07:19;;;;;;;7.65;3.10;;;;;;;16.59;64.04;95613.13;4425650;32;20406;-78
2022/04/01 01:09:46;;;;;;;7.97;3.12;;;;;;;16.82;63.14;95601.16;4424808;32;20149;-78
2022/04/01 01:12:13;;;;;;;6.07;2.72;;;;;;;17.05;61.96;95603.87;4411856;32;20181;-78
2022/04/01 01:14:41;;;;;;;8.75;3.37;;;;;;;16.72;62.80;95608.31;4425199;32;20164;-78
2022/04/01 01:17:11;;;;;;;8.32;3.25;;;;;;;16.57;63.44;95597.66;4425558;32;20107;-78
2022/04/01 01:19:39;;;;;;;6.72;3.03;;;;;;;16.91;62.22;95609.78;4412148;32;20110;-78
2022/04/01 01:22:08;;;;;;;6.78;2.85;;;;;;;17.63;59.10;95607.97;4411405;32;20102;-78
2022/04/01 01:24:37;;;;;;;7.90;2.70;;;;;;;17.20;59.91;95607.44;4425513;32;20093;-77
2022/04/01 01:27:06;;;;;;;6.18;2.50;;;;;;;16.95;60.79;95598.84;4425580;32;20440;-78
2022/04/01 01:29:35;;;;;;;8.50;2.97;;;;;;;16.66;61.89;95593.28;4425147;32;20490;-78
2022/04/01 01:32:03;;;;;;;7.10;2.80;;;;;;;17.12;60.85;95589.22;4425506;32;20427;-78
2022/04/01 01:34:35;;;;;;;6.95;2.53;;;;;;;18.04;56.77;95593.00;4425137;32;20081;-78
2022/04/01 01:37:02;;;;;;;6.78;2.65;;;;;;;17.05;59.75;95593.47;4425077;32;20082;-78
2022/04/01 01:39:31;;;;;;;7.85;2.90;;;;;;;17.19;59.41;95592.78;4425483;32;20574;-78
2022/04/01 01:41:58;;;;;;;6.35;2.70;;;;;;;16.39;61.49;95581.41;4425328;32;20133;-78
2022/04/01 01:44:25;;;;;;;8.35;3.28;;;;;;;16.80;61.43;95581.44;4424996;32;20107;-78
2022/04/01 01:46:53;;;;;;;7.53;3.12;;;;;;;16.68;61.56;95578.34;4425580;32;20099;-78
2022/04/01 01:49:21;;;;;;;7.18;2.78;;;;;;;17.52;59.07;95572.66;4425471;32;20108;-78
2022/04/01 01:57:09;;;;;;;6.68;2.70;;;;;;;17.33;59.58;95576.47;4424998;32;20129;-78
2022/04/01 01:59:37;;;;;;;5.80;2.58;;;;;;;17.67;58.35;95583.22;4425206;32;20149;-78
2022/04/01 02:02:05;;;;;;;5.87;2.33;;;;;;;18.45;55.62;95585.75;4425237;32;20121;-78
2022/04/01 02:04:34;;;;;;;6.05;2.45;;;;;;;18.00;55.97;95580.47;4424842;32;20098;-78
2022/04/01 02:07:02;;;;;;;6.70;2.70;;;;;;;17.08;59.27;95587.09;4425206;32;20082;-78
2022/04/01 02:09:29;;;;;;;7.25;2.90;;;;;;;17.37;58.43;95582.16;4425274;32;20144;-78
2022/04/01 02:11:58;;;;;;;6.50;2.70;;;;;;;16.28;61.82;95579.13;4424753;32;20165;-77
2022/04/01 02:14:25;;;;;;;5.37;2.37;;;;;;;16.33;62.42;95588.06;4425055;32;20623;-77
2022/04/01 02:16:52;;;;;;;6.78;2.50;;;;;;;17.56;58.12;95589.59;4425199;32;20155;-77
2022/04/01 02:19:23;;;;;;;6.05;2.45;;;;;;;16.86;60.39;95589.41;4424790;32;20112;-78
2022/04/01 02:21:52;;;;;;;5.90;2.28;;;;;;;16.59;61.05;95581.88;4424050;32;20138;-78
2022/04/01 02:24:21;;;;;;;7.10;2.70;;;;;;;15.13;66.68;95572.66;4411088;32;20093;-77
2022/04/01 02:26:48;;;;;;;6.53;2.80;;;;;;;15.36;66.02;95567.75;4424717;32;20085;-78
2022/04/01 02:29:18;;;;;;;7.62;2.62;;;;;;;15.82;64.74;95569.06;4424973;32;20115;-78
2022/04/01 02:31:50;;;;;;;5.40;2.33;;;;;;;16.35;62.69;95570.50;4424797;32;20440;-77
2022/04/01 02:34:23;;;;;;;6.80;2.50;;;;;;;17.59;58.31;95584.03;4424717;32;20104;-77
2022/04/01 02:36:50;;;;;;;5.05;1.90;;;;;;;16.80;60.51;95582.28;4424861;32;20150;-77
2022/04/01 02:39:18;;;;;;;3.90;1.52;;;;;;;16.61;61.25;95585.16;4424661;32;20109;-80
2022/04/01 02:41:45;;;;;;;5.40;1.83;;;;;;;15.69;63.60;95579.13;4424881;32;20459;-80
2022/04/01 02:44:14;;;;;;;6.28;1.70;;;;;;;15.21;65.79;95583.09;4424677;32;20456;-80
2022/04/01 02:46:43;;;;;;;4.15;1.77;;;;;;;15.31;65.79;95578.59;4424521;32;20488;-80
2022/04/01 02:49:19;;;;;;;4.40;1.90;;;;;;;15.32;65.71;95572.44;4424563;32;20464;-78
2022/04/01 02:51:47;;;;;;;5.70;2.03;;;;;;;15.78;64.64;95567.78;4424936;32;20155;-78
2022/04/01 02:54:14;;;;;;;3.67;1.83;;;;;;;15.75;64.36;95575.91;4424282;32;20168;-78
2022/04/01 02:56:41;;;;;;;4.30;1.90;;;;;;;16.89;60.28;95578.66;4424653;32;20077;-78
2022/04/01 02:59:09;;;;;;;5.97;1.95;;;;;;;17.16;59.24;95584.50;4424720;32;20411;-78
2022/04/01 03:01:38;;;;;;;2.67;1.30;;;;;;;16.19;61.29;95581.69;4424355;32;20112;-77
2022/04/01 03:04:09;;;;;;;1.95;1.00;;;;;;;16.22;61.70;95590.16;4424505;32;20105;-78
2022/04/01 03:06:40;;;;;;;4.70;1.10;;;;;;;15.23;64.29;95588.94;4424605;32;20070;-77
2022/04/01 03:09:07;;;;;;;2.45;1.10;;;;;;;14.88;65.12;95591.62;4424572;32;20093;-78
2022/04/01 03:11:37;;;;;;;1.80;1.10;;;;;;;14.55;66.63;95581.00;4424559;32;20115;-78
2022/04/01 03:14:09;;;;;;;1.80;1.05;;;;;;;14.12;67.96;95579.94;4423951;32;20151;-77
2022/04/01 03:16:37;;;;;;;1.48;0.80;;;;;;;15.19;64.18;95582.41;4410973;32;20667;-77
2022/04/01 03:19:10;;;;;;;2.87;1.17;;;;;;;15.60;61.37;95588.66;4424393;32;20101;-78
2022/04/01 03:21:41;;;;;;;2.60;0.98;;;;;;;14.97;62.76;95588.94;4424110;32;20703;-78
2022/04/01 03:24:11;;;;;;;1.80;1.00;;;;;;;15.27;62.41;95584.25;4424212;32;20458;-78
2022/04/01 03:26:39;;;;;;;2.17;0.90;;;;;;;15.00;62.31;95580.84;4410834;32;20420;-79
2022/04/01 03:29:07;;;;;;;3.40;1.02;;;;;;;15.57;59.90;95573.34;4423923;32;20562;-80
2022/04/01 03:31:35;;;;;;;4.05;1.20;;;;;;;15.05;61.68;95577.78;4424279;32;20081;-80
2022/04/01 03:34:06;;;;;;;3.08;1.30;;;;;;;14.35;63.33;95569.12;4412283;32;20085;-80
2022/04/01 03:36:34;;;;;;;3.25;1.10;;;;;;;14.25;64.79;95568.38;4412176;32;20108;-80
2022/04/01 03:39:02;;;;;;;2.70;1.27;;;;;;;14.44;63.57;95568.22;4426183;32;20116;-80
2022/04/01 03:41:30;;;;;;;3.12;1.27;;;;;;;14.01;64.78;95568.97;4426223;32;20515;-80
2022/04/01 03:44:00;;;;;;;2.90;1.05;;;;;;;13.56;66.24;95564.59;4425826;32;20207;-80
2022/04/01 03:46:55;;;;;;;3.28;1.37;;;;;;;12.86;68.26;95558.13;4426191;32;20074;-80
2022/04/01 03:49:23;;;;;;;4.00;1.15;;;;;;;11.79;71.34;95555.56;4415264;32;20150;-80
2022/04/01 03:51:51;;;;;;;3.30;1.35;;;;;;;11.57;73.06;95551.41;4426084;32;20097;-80
2022/04/01 03:54:18;;;;;;;2.80;1.25;;;;;;;11.70;72.96;95548.63;4426063;32;20089;-80
2022/04/01 03:56:52;;;;;;;4.68;1.55;;;;;;;12.10;71.53;95550.31;4411977;32;20177;-80
2022/04/01 03:59:20;;;;;;;4.15;1.42;;;;;;;11.98;71.31;95548.81;4412724;32;20414;-80
2022/04/01 04:01:47;;;;;;;4.47;1.30;;;;;;;12.79;67.97;95562.25;4426118;32;20149;-80
2022/04/01 04:04:15;;;;;;;4.55;1.48;;;;;;;13.03;66.48;95573.75;4425610;32;20128;-79
2022/04/01 04:06:42;;;;;;;3.78;1.50;;;;;;;12.80;67.03;95577.63;4426174;32;20156;-79
2022/04/01 04:09:10;;;;;;;4.15;1.55;;;;;;;12.61;67.82;95578.47;4412265;32;20158;-79
2022/04/01 04:11:37;;;;;;;4.65;1.35;;;;;;;12.75;66.96;95585.78;4425804;32;20085;-80
2022/04/01 04:14:04;;;;;;;5.53;1.67;;;;;;;12.95;66.31;95573.63;4425912;32;20149;-80
2022/04/01 04:16:45;;;;;;;3.97;1.77;;;;;;;13.03;65.97;95578.94;4426019;32;20581;-80
2022/04/01 04:19:21;;;;;;;4.40;1.75;;;;;;;12.93;65.69;95575.56;4425771;32;20097;-80
2022/04/01 04:22:12;;;;;;;4.40;1.73;;;;;;;12.99;65.04;95580.19;4426142;32;20141;-80
2022/04/01 04:24:53;;;;;;;5.62;1.70;;;;;;;13.09;64.51;95576.75;4425595;32;20153;-80
2022/04/01 04:27:27;;;;;;;4.35;1.40;;;;;;;12.82;66.13;95578.31;4412079;32;20153;-80
2022/04/01 04:30:02;;;;;;;4.00;1.58;;;;;;;13.17;64.67;95580.25;4425775;32;20137;-80
2022/04/01 04:32:40;;;;;;;3.95;1.70;;;;;;;12.95;66.16;95585.75;4425509;32;20128;-81
2022/04/01 04:35:08;;;;;;;;;;;;;;;12.35;66.17;95578.22;4425803;32;20185;-80
2022/04/01 04:37:36;;;;;;;;;;;;;;;12.84;65.99;95586.72;4426189;32;20408;-80
2022/04/01 04:40:03;;;;;;;;;;;;;;;12.77;64.74;95585.69;4425949;32;20391;-79
2022/04/01 04:42:32;;;;;;;4.63;1.83;;;;;;;12.32;66.26;95581.06;4425896;32;20026;-79
2022/04/01 04:44:59;;;;;;;6.35;2.20;;;;;;;12.07;67.33;95584.19;4424666;32;20171;-79
2022/04/01 04:47:28;;;;;;;4.95;1.80;;;;;;;12.25;65.60;95594.69;4425835;32;20674;-79
2022/04/01 04:49:57;;;;;;;8.85;3.00;;;;;;;11.30;68.83;95590.75;4425882;32;20090;-79
2022/04/01 04:52:31;;;;;;;6.28;2.58;;;;;;;11.27;69.18;95596.19;4411738;32;20121;-80
2022/04/01 04:55:03;;;;;;;7.53;2.67;;;;;;;11.12;69.97;95597.47;4425608;32;20094;-79
2022/04/01 04:57:30;;;;;;;6.80;2.42;;;;;;;11.21;68.97;95598.44;4425648;32;20086;-79
2022/04/01 04:59:58;;;;;;;8.13;2.75;;;;;;;11.10;69.46;95598.53;4399172;32;20133;-80
2022/04/01 05:02:41;;;;;;;6.55;2.40;;;;;;;10.75;70.41;95597.13;4425687;32;20113;-79
2022/04/01 05:05:40;;;;;;;5.93;2.28;;;;;;;10.83;70.19;95602.44;4425689;32;20097;-79
2022/04/01 05:08:19;;;;;;;;;;;;;;;10.87;69.96;95606.44;4397388;32;20097;-79
2022/04/01 05:11:08;;;;;;;7.87;2.60;;;;;;;10.88;70.46;95612.41;4425719;32;20049;-79
2022/04/01 05:13:59;;;;;;;6.07;2.75;;;;;;;10.65;70.80;95609.13;4411640;32;20120;-79
2022/04/01 05:17:04;;;;;;;6.78;2.37;;;;;;;10.89;70.00;95611.47;4411793;32;20109;-79
2022/04/01 05:19:31;;;;;;;5.78;2.15;;;;;;;10.56;71.02;95609.88;4425671;32;20074;-79
2022/04/01 05:22:07;;;;;;;7.62;2.40;;;;;;;11.01;69.55;95603.50;4425014;32;20098;-79
2022/04/01 05:24:42;;;;;;;7.85;3.00;;;;;;;10.87;70.02;95605.63;4411735;32;20157;-79
2022/04/01 05:27:21;;;;;;;7.43;2.60;;;;;;;10.61;70.97;95607.72;4425268;32;20148;-79
2022/04/01 05:30:18;;;;;;;7.82;3.00;;;;;;;10.98;70.13;95600.38;4412217;32;20085;-79
2022/04/01 05:33:08;;;;;;;5.60;2.30;;;;;;;11.76;66.12;95606.66;4425542;32;20098;-79
2022/04/01 05:35:38;;;;;;;6.12;2.50;;;;;;;11.00;67.96;95612.19;4424974;32;20098;-79
2022/04/01 05:38:09;;;;;;;7.97;2.40;;;;;;;10.63;70.17;95617.00;4425499;32;20144;-79
2022/04/01 05:40:37;;;;;;;7.03;2.60;;;;;;;10.14;70.86;95613.19;4412237;32;20436;-79
2022/04/01 05:43:06;;;;;;;6.65;2.10;;;;;;;11.05;69.38;95616.97;4425032;32;20106;-79
2022/04/01 05:45:33;;;;;;;6.50;2.40;;;;;;;10.88;69.47;95626.13;4425454;32;20524;-79
2022/04/01 05:48:01;;;;;;;7.37;2.30;;;;;;;11.42;67.70;95624.22;4425367;32;20102;-79
2022/04/01 05:50:28;;;;;;;7.40;2.60;;;;;;;11.12;67.60;95623.25;4425267;32;20125;-80
2022/04/01 05:52:55;;;;;;;5.53;2.40;;;;;;;11.47;66.27;95622.88;4425262;32;20106;-78
2022/04/01 05:55:25;;;;;;;6.22;2.22;;;;;;;10.20;71.11;95623.91;4408217;32;20121;-80
2022/04/01 05:57:53;;;;;;;5.53;2.35;;;;;;;11.09;68.60;95628.69;4423879;32;20143;-81
2022/04/01 06:00:21;;;;;;;6.05;2.20;;;;;;;11.47;67.02;95629.81;4424293;32;20484;-82
2022/04/01 06:03:06;;;;;;;5.68;2.20;;;;;;;11.22;67.91;95636.22;4424418;32;20122;-80
2022/04/01 06:05:42;;;;;;;5.40;2.45;;;;;;;11.11;67.34;95631.13;4410942;32;20472;-80
2022/04/01 06:08:34;;;;;;;6.32;2.40;;;;;;;11.70;65.67;95636.44;4424425;32;20458;-80
2022/04/01 06:11:49;;;;;;;8.95;2.80;;;;;;;11.38;65.76;95636.59;4423699;32;20081;-80
2022/04/01 06:14:40;;;;;;;7.00;2.67;;;;;;;10.90;68.53;95649.22;4346720;33;20167;-77
2022/04/01 06:17:15;;;;;;;8.68;3.08;;;;;;;10.98;67.76;95641.66;4346516;33;20494;-78
2022/04/01 06:19:46;;;;;;;7.00;2.60;;;;;;;9.89;71.94;95646.97;4405783;32;20085;-78
2022/04/01 06:22:17;;;;;;;8.18;2.78;;;;;;;10.40;69.95;95636.06;4410514;32;20488;-78
2022/04/01 06:25:17;;;;;;;10.35;3.28;;;;;;;10.39;69.71;95647.31;4424259;32;20116;-78
2022/04/01 06:27:46;;;;;;;10.02;3.60;;;;;;;10.76;68.66;95649.53;4424393;32;20467;-77
2022/04/01 06:30:17;;;;;;;9.80;3.40;;;;;;;10.40;69.91;95654.09;4423219;32;20151;-76
2022/04/01 06:32:50;;;;;;;11.88;3.92;;;;;;;10.55;69.63;95654.66;4415982;32;271756;-76
2022/04/01 06:35:19;;;;;;;10.43;3.50;;;;;;;9.91;71.58;95654.56;4424018;32;20113;-78
2022/04/01 06:37:55;;;;;;;12.07;4.10;;;;;;;9.59;72.22;95646.75;4424210;32;20110;-78
2022/04/01 06:40:24;;;;;;;16.35;5.85;;;;;;;9.29;73.72;95648.16;4424376;32;20089;-78
2022/04/01 06:42:53;;;;;;;7.85;3.08;;;;;;;8.95;75.02;95645.53;4413511;32;20078;-80
2022/04/01 06:45:21;;;;;;;8.25;3.00;;;;;;;9.30;74.20;95646.41;4432577;32;20746;-77
2022/04/01 06:47:48;;;;;;;9.35;3.10;;;;;;;9.47;73.65;95651.09;4410462;32;20122;-77
2022/04/01 06:50:16;;;;;;;11.20;3.90;;;;;;;10.27;70.97;95651.69;4423443;32;20150;-77
2022/04/01 06:52:44;;;;;;;9.77;4.00;;;;;;;9.33;73.89;95653.88;4423662;32;20073;-77
2022/04/01 06:55:13;;;;;;;12.65;3.12;;;;;;;9.79;72.65;95648.63;4410314;32;20098;-77
2022/04/01 06:57:40;;;;;;;7.97;3.50;;;;;;;9.67;72.33;95657.28;4423472;32;20149;-76
2022/04/01 07:00:11;;;;;;;7.68;2.78;;;;;;;10.02;71.40;95655.38;4422892;32;20150;-76
2022/04/01 07:02:43;;;;;;;12.52;3.78;;;;;;;9.62;73.03;95656.81;4423955;32;20090;-76
2022/04/01 07:05:11;;;;;;;9.48;3.67;;;;;;;9.46;72.81;95649.44;4426750;32;20113;-86
2022/04/01 07:07:41;;;;;;;9.93;4.22;;;;;;;10.40;70.38;95667.00;4417676;32;21277;-84
2022/04/01 07:10:11;;;;;;;10.15;3.65;;;;;;;9.66;72.70;95671.91;4431912;32;20117;-84
2022/04/01 07:12:38;;;;;;;10.80;4.00;;;;;;;9.82;72.19;95674.94;4427525;32;20101;-83
2022/04/01 07:15:10;;;;;;;11.35;4.62;;;;;;;9.70;72.91;95675.06;4426993;32;20161;-83
2022/04/01 07:17:38;;;;;;;11.30;4.37;;;;;;;9.34;74.30;95676.09;4426101;32;20097;-85
2022/04/01 07:20:11;;;;;;;12.37;4.90;;;;;;;9.11;74.39;95680.41;4424902;32;20569;-83
2022/04/01 07:22:48;;;;;;;11.18;5.05;;;;;;;8.68;75.99;95683.56;4425515;32;20491;-86
2022/04/01 07:25:15;;;;;;;13.85;5.93;;;;;;;8.60;75.80;95676.38;4411562;32;20114;-87
2022/04/01 07:27:43;;;;;;;11.65;5.12;;;;;;;8.89;75.62;95679.41;4425241;32;20094;-87
2022/04/01 07:30:10;;;;;;;14.40;5.65;;;;;;;9.13;74.61;95687.06;4424559;32;20085;-86
2022/04/01 07:32:37;;;;;;;13.20;5.75;;;;;;;8.08;77.89;95692.09;4425559;32;20085;-85
2022/04/01 07:35:08;;;;;;;14.32;6.55;;;;;;;8.65;76.44;95697.47;4424997;32;20163;-86
2022/04/01 07:37:35;;;;;;;14.25;6.03;;;;;;;8.57;77.16;95694.63;4411733;32;20137;-86
2022/04/01 07:40:21;;;;;;;13.98;6.05;;;;;;;8.92;75.96;95698.94;4425505;32;20558;-85
2022/04/01 07:42:51;;;;;;;14.07;6.00;;;;;;;8.53;77.17;95700.09;4429082;32;20082;-87
2022/04/01 07:45:18;;;;;;;12.30;5.18;;;;;;;9.23;74.65;95708.59;4427403;32;20058;-87
2022/04/01 07:47:47;;;;;;;13.05;5.90;;;;;;;9.66;72.37;95713.09;4425716;32;20089;-86
2022/04/01 07:50:15;;;;;;;12.30;5.40;;;;;;;9.49;72.42;95709.25;4411664;32;21011;-86
2022/04/01 07:52:43;;;;;;;13.70;5.47;;;;;;;9.36;73.12;95711.09;4425993;32;20090;-86
2022/04/01 07:55:13;;;;;;;12.82;5.82;;;;;;;9.24;73.06;95709.41;4425656;32;20106;-87
2022/04/01 07:57:41;;;;;;;12.85;5.62;;;;;;;9.06;74.92;95705.66;4427823;32;20140;-86
2022/04/01 08:00:13;;;;;;;10.70;4.53;;;;;;;9.66;71.88;95713.09;4412240;32;20120;-87
2022/04/01 08:02:40;;;;;;;12.95;5.37;;;;;;;9.37;72.91;95711.91;4426003;32;20241;-87
2022/04/01 08:05:08;;;;;;;12.98;5.32;;;;;;;9.68;71.40;95715.56;4425403;32;20113;-87
2022/04/01 08:07:35;;;;;;;11.98;4.93;;;;;;;9.17;73.68;95713.41;4425702;32;20112;-86
2022/04/01 08:10:04;;;;;;;14.00;5.93;;;;;;;8.75;75.25;95718.19;4424496;32;20489;-86
2022/04/01 08:12:40;;;;;;;13.32;5.00;;;;;;;8.74;75.71;95718.28;4425601;32;20090;-88
2022/04/01 08:15:07;;;;;;;12.50;5.12;;;;;;;9.38;73.29;95718.72;4425282;32;20114;-87
2022/04/01 08:17:34;;;;;;;13.35;5.70;;;;;;;9.15;74.38;95725.56;4425553;32;20397;-88
2022/04/01 08:20:02;;;;;;;12.02;5.25;;;;;;;9.73;72.31;95726.34;4423264;32;20153;-89
2022/04/01 08:22:29;;;;;;;12.27;5.75;;;;;;;9.52;72.11;95728.78;4425078;32;20640;-87
2022/04/01 08:24:57;;;;;;;12.45;4.28;;;;;;;10.02;71.33;95731.84;4432155;32;20131;-87
2022/04/01 08:27:26;;;;;;;11.75;4.72;;;;;;;10.68;68.67;95733.47;4437139;32;20172;-88
2022/04/01 08:29:59;;;;;;;11.90;5.10;;;;;;;10.32;70.68;95736.41;4438395;32;20104;-87
2022/04/01 08:32:29;;;;;;;12.00;5.03;;;;;;;9.76;73.29;95731.25;4439720;32;20567;-88
2022/04/01 08:34:57;;;;;;;10.13;4.00;;;;;;;9.76;72.68;95726.91;4440384;32;20088;-88
2022/04/01 08:37:27;;;;;;;11.18;4.35;;;;;;;9.40;73.92;95727.94;4428803;32;20113;-88
2022/04/01 08:39:58;;;;;;;12.55;5.03;;;;;;;9.41;74.65;95732.16;4439203;32;20803;-89
2022/04/01 08:42:27;;;;;;;12.27;4.57;;;;;;;10.00;75.32;95741.44;4438937;32;20154;-87
2022/04/01 08:44:54;;;;;;;12.32;5.47;;;;;;;10.53;72.22;95747.59;4439582;32;20074;-88
2022/04/01 08:47:21;;;;;;;13.10;5.05;;;;;;;10.35;71.43;95747.28;4441081;32;20544;-85
2022/04/01 08:49:49;;;;;;;12.95;5.70;;;;;;;9.78;73.74;95744.81;4439779;32;20109;-86
2022/04/01 08:52:17;;;;;;;11.68;5.30;;;;;;;9.97;73.59;95746.81;4440732;32;20167;-87
2022/04/01 08:54:46;;;;;;;13.10;5.72;;;;;;;10.38;72.36;95751.38;4446672;32;20081;-83
2022/04/01 08:57:17;;;;;;;11.77;4.93;;;;;;;10.70;70.25;95754.00;4446601;32;20085;-84
2022/04/01 08:59:44;;;;;;;14.60;5.35;;;;;;;10.34;72.60;95753.38;4449741;32;20631;-82
2022/04/01 09:02:12;;;;;;;13.90;5.43;;;;;;;10.68;71.80;95764.44;4516728;26;20100;-80
2022/04/01 09:04:39;;;;;;;12.98;5.60;;;;;;;10.19;72.32;95757.09;4457136;32;20073;-83
2022/04/01 09:07:14;;;;;;;11.23;5.35;;;;;;;10.54;71.48;95774.22;4468903;32;20070;-85
2022/04/01 09:12:17;;;;;;;13.45;6.10;;;;;;;10.26;73.07;95770.37;4918979;26;20160;-83
2022/04/01 09:14:53;;;;;;;15.13;5.90;;;;;;;10.82;71.88;95773.63;4463098;26;20093;-84
2022/04/01 09:17:21;;;;;;;13.93;6.22;;;;;;;11.02;70.91;95782.38;4674833;26;20103;-83
2022/04/01 09:19:49;;;;;;;13.25;6.62;;;;;;;11.09;68.46;95778.37;4452548;32;20062;-82
2022/04/01 09:22:30;;;;;;;13.35;5.70;;;;;;;9.21;73.40;95722.53;4440429;32;20057;-83
2022/04/01 09:25:12;;;;;;;15.82;6.78;;;;;;;9.98;73.10;95779.34;4429445;32;20078;-82
2022/04/01 09:27:51;;;;;;;14.43;6.85;;;;;;;9.88;74.50;95775.84;4451556;32;20096;-82
2022/04/01 09:30:27;;;;;;;15.10;6.93;;;;;;;9.39;75.45;95782.94;4443931;32;20462;-83
2022/04/01 09:32:58;;;;;;;15.32;7.65;;;;;;;9.72;73.23;95789.88;4445921;32;20097;-81
2022/04/01 09:35:28;;;;;;;12.20;5.55;;;;;;;9.93;72.54;95784.06;4432250;32;20200;-83
2022/04/01 09:37:58;;;;;;;17.45;8.55;;;;;;;9.13;74.71;95777.09;4443729;32;20076;-83
2022/04/01 09:40:26;;;;;;;16.48;7.50;;;;;;;9.91;73.36;95788.50;4443028;32;20077;-83
2022/04/01 09:42:56;;;;;;;15.82;6.62;;;;;;;9.96;73.67;95787.22;4443387;32;20070;-84
2022/04/01 09:45:24;;;;;;;14.93;6.72;;;;;;;9.99;71.21;95779.25;4442090;32;20125;-83
2022/04/01 09:47:59;;;;;;;15.65;7.50;;;;;;;9.38;73.75;95773.56;4444898;32;20417;-83
2022/04/01 09:50:29;;;;;;;14.70;7.10;;;;;;;9.71;72.85;95774.56;4440046;32;20101;-83
2022/04/01 09:53:14;;;;;;;14.43;6.37;;;;;;;9.55;73.81;95772.31;4439887;32;20107;-84
2022/04/01 09:55:46;;;;;;;16.15;7.57;;;;;;;9.52;73.01;95780.25;4439377;32;20704;-83
2022/04/01 09:58:17;;;;;;;16.30;7.40;;;;;;;9.69;74.12;95786.75;4440287;32;20093;-84
2022/04/01 10:00:45;;;;;;;15.85;7.07;;;;;;;9.61;73.80;95789.88;4439511;32;20094;-85
2022/04/01 10:03:17;;;;;;;16.25;7.53;;;;;;;9.16;76.39;95792.34;4440532;32;20050;-85
2022/04/01 10:05:45;;;;;;;15.63;7.40;;;;;;;9.45;74.01;95792.75;4439790;32;20133;-83
2022/04/01 10:08:13;;;;;;;14.75;7.18;;;;;;;10.23;72.22;95788.66;4441857;32;20160;-83
2022/04/01 10:10:42;;;;;;;16.70;6.75;;;;;;;10.40;72.37;95798.47;4440318;32;20101;-83
2022/04/01 10:13:33;;;;;;;16.70;7.28;;;;;;;11.09;68.47;95808.50;4439978;32;20597;-84
2022/04/01 10:16:08;;;;;;;13.70;6.43;;;;;;;10.90;69.05;95809.16;4440194;32;20597;-83
2022/04/01 10:18:51;;;;;;;13.65;6.53;;;;;;;10.17;70.81;95799.41;4440195;32;20172;-83
2022/04/01 10:21:19;;;;;;;15.82;7.37;;;;;;;8.96;73.18;95809.22;4425835;32;20113;-83
2022/04/01 10:23:58;;;;;;;14.38;7.18;;;;;;;9.07;75.75;95818.72;4439611;32;20089;-83
2022/04/01 10:26:31;;;;;;;18.58;7.47;;;;;;;9.22;72.90;95815.03;4426188;32;20097;-83
2022/04/01 10:28:58;;;;;;;17.27;8.20;;;;;;;9.84;71.81;95822.44;4442233;32;20105;-85
2022/04/01 10:31:26;;;;;;;16.67;7.72;;;;;;;9.68;73.10;95827.13;4444851;32;20082;-84
2022/04/01 10:34:22;;;;;;;16.62;8.02;;;;;;;9.17;75.75;95834.31;4446807;32;20062;-86
2022/04/01 10:36:59;;;;;;;20.27;8.80;;;;;;;9.69;72.78;95840.81;4432929;32;20125;-85
2022/04/01 10:39:28;;;;;;;17.33;8.20;;;;;;;10.78;69.13;95841.09;4445680;32;20101;-85
2022/04/01 10:42:12;;;;;;;17.37;8.48;;;;;;;11.03;68.12;95838.19;4444561;32;20187;-85
2022/04/01 10:44:56;;;;;;;19.17;9.27;;;;;;;9.76;72.01;95829.09;4447556;32;20110;-85
2022/04/01 10:53:39;;;;;;;19.08;9.52;;;;;;;9.26;74.45;95846.53;4447535;32;20290;-84
2022/04/01 10:56:21;;;;;;;20.10;9.55;;;;;;;9.26;74.45;95844.78;4449088;32;20831;-85
2022/04/01 10:59:07;;;;;;;20.30;8.98;;;;;;;9.47;72.81;95852.69;4450747;32;20170;-85
2022/04/01 11:01:38;;;;;;;21.80;10.32;;;;;;;8.98;74.87;95856.22;4450977;32;20517;-85
2022/04/01 11:04:12;;;;;;;19.48;9.30;;;;;;;8.80;76.38;95854.13;4452697;32;20062;-85
2022/04/01 11:07:00;;;;;;;19.73;10.10;;;;;;;9.13;74.98;95854.28;4448347;32;20196;-86
2022/04/01 11:09:50;;;;;;;19.75;9.95;;;;;;;9.25;74.98;95852.56;4439909;32;20097;-87
2022/04/01 11:12:21;;;;;;;20.70;9.85;;;;;;;9.69;73.97;95858.84;4442691;32;20117;-88
2022/04/01 11:17:36;;;;;;;20.20;10.02;;;;;;;10.05;71.50;95863.81;4562612;26;20058;-86
2022/04/01 11:20:12;;;;;;;19.58;9.75;;;;;;;10.60;69.34;95864.78;4428962;32;20078;-85
2022/04/01 11:22:41;;;;;;;19.12;9.55;;;;;;;10.97;67.89;95867.91;4430902;32;20387;-86
2022/04/01 11:25:24;;;;;;;18.75;9.75;;;;;;;10.56;69.02;95865.97;4428625;32;20062;-84
2022/04/01 11:28:08;;;;;;;19.33;10.30;;;;;;;10.32;69.82;95867.84;4445760;32;20102;-84
2022/04/01 11:30:56;;;;;;;17.73;8.63;;;;;;;9.62;72.42;95862.78;4466847;27;20078;-82
2022/04/01 11:33:23;;;;;;;20.92;10.48;;;;;;;8.93;72.90;95821.44;4418409;32;20089;-83
2022/04/01 11:35:53;;;;;;;;;;;;;;;8.94;75.88;95879.69;4428777;32;20153;-83
2022/04/01 11:38:22;;;;;;;20.85;10.05;;;;;;;9.72;73.65;95869.72;4431296;32;20281;-83
2022/04/01 11:40:53;;;;;;;21.30;10.65;;;;;;;9.65;72.38;95876.25;4431661;32;20436;-82
2022/04/01 11:43:22;;;;;;;18.75;9.45;;;;;;;10.15;70.21;95874.25;4429600;32;20081;-83
2022/04/01 11:46:13;;;;;;;21.50;10.57;;;;;;;9.08;73.17;95889.00;4428079;32;20109;-82
2022/04/01 11:48:49;;;;;;;21.33;10.18;;;;;;;9.72;71.95;95879.19;4416712;32;20058;-82
2022/04/01 11:51:21;;;;;;;18.98;10.18;;;;;;;10.20;70.23;95879.03;4416468;32;20077;-82
2022/04/01 11:53:52;;;;;;;20.10;9.95;;;;;;;9.82;70.74;95875.84;4417623;32;20109;-83
2022/04/01 11:56:23;;;;;;;20.73;10.70;;;;;;;9.34;73.11;95881.97;4420244;32;20153;-81
2022/04/01 11:59:01;;;;;;;20.02;10.70;;;;;;;9.14;74.28;95880.81;4418960;32;20150;-82
2022/04/01 12:01:54;;;;;;;20.77;10.43;;;;;;;10.09;70.77;95885.81;4420018;32;20117;-83
2022/04/01 12:04:33;;;;;;;22.98;11.25;;;;;;;9.88;71.85;95886.59;4412983;32;20479;-82
2022/04/01 12:09:58;;;;;;;17.45;9.55;;;;;;;11.04;67.38;95891.44;4414596;32;20460;-82
2022/04/01 12:12:26;;;;;;;20.12;10.30;;;;;;;10.87;67.51;95884.22;4412184;32;20176;-84